Time;durP1;ratioP1;P1;durP2;ratioP2;P2;SDS_P1;SDS_P2;PMS_P1;PMS_P2;Temp;Humidity;BMP_temperature;BMP_pressure;BME280_temperature;BME280_humidity;BME280_pressure;Samples;Min_cycle;Max_cycle;Signal;HPM_P1;HPM_P2
2023/12/20 00:02:46;;;;;;;0.47;0.30;;;;;;;-0.71;100.00;97592.91;6128469;28;20305;-42
2023/12/20 00:05:49;;;;;;;2.67;0.63;;;;;;;-0.82;100.00;97581.88;6126917;28;20292;-42
2023/12/20 00:08:51;;;;;;;0.40;0.40;;;;;;;-0.85;100.00;97582.19;6132415;28;20194;-42
2023/12/20 00:11:54;;;;;;;0.47;0.40;;;;;;;-0.72;100.00;97579.03;6139633;28;20249;-43
2023/12/20 00:14:56;;;;;;;1.93;0.50;;;;;;;-0.76;100.00;97579.53;6134503;28;20213;-42
2023/12/20 00:17:58;;;;;;;0.60;0.47;;;;;;;-0.81;100.00;97586.09;6131244;28;20274;-42
2023/12/20 00:21:01;;;;;;;3.10;0.60;;;;;;;-0.88;100.00;97555.59;6126346;29;20210;-42
2023/12/20 00:24:04;;;;;;;0.73;0.40;;;;;;;-0.80;100.00;97572.03;6129885;28;20218;-42
2023/12/20 00:27:07;;;;;;;0.43;0.43;;;;;;;-0.69;100.00;97570.00;6129583;28;20199;-42
2023/12/20 00:30:11;;;;;;;0.50;0.50;;;;;;;-0.67;100.00;97568.88;6132278;28;20739;-43
2023/12/20 00:33:14;;;;;;;0.50;0.50;;;;;;;-0.76;100.00;97559.44;6136989;29;20227;-43
2023/12/20 00:36:16;;;;;;;2.87;0.53;;;;;;;-0.83;100.00;97566.34;6143261;29;20285;-42
2023/12/20 00:39:19;;;;;;;0.30;0.30;;;;;;;-0.87;100.00;97552.00;6131251;28;20692;-42
2023/12/20 00:42:21;;;;;;;0.40;0.40;;;;;;;-1.22;100.00;97511.50;6138078;29;20691;-42
2023/12/20 00:45:24;;;;;;;0.83;0.30;;;;;;;-1.04;100.00;97551.25;6140408;28;20191;-42
2023/12/20 00:48:27;;;;;;;0.40;0.40;;;;;;;-1.11;100.00;97511.91;6140338;28;20317;-42
2023/12/20 00:51:29;;;;;;;0.40;0.37;;;;;;;-0.95;100.00;97518.03;6138939;28;20576;-42
2023/12/20 00:54:32;;;;;;;3.07;0.50;;;;;;;-1.04;100.00;97488.50;6129072;28;20215;-42
2023/12/20 00:57:35;;;;;;;0.60;0.50;;;;;;;-0.73;100.00;97505.97;6135760;29;20560;-42
2023/12/20 01:00:37;;;;;;;0.40;0.30;;;;;;;-0.67;100.00;97519.16;6137347;28;20203;-42
2023/12/20 01:03:44;;;;;;;0.70;0.47;;;;;;;-0.62;100.00;97534.34;6137087;28;20578;-42
2023/12/20 01:06:47;;;;;;;0.60;0.60;;;;;;;-0.34;100.00;97540.66;6136041;29;20195;-42
2023/12/20 01:09:49;;;;;;;0.40;0.40;;;;;;;-0.29;100.00;97534.91;6138908;29;20274;-41
2023/12/20 01:12:52;;;;;;;0.53;0.50;;;;;;;-0.23;100.00;97541.22;6125187;29;20188;-41
2023/12/20 01:15:55;;;;;;;0.40;0.40;;;;;;;-0.12;100.00;97538.19;6110272;29;20354;-42
2023/12/20 01:18:58;;;;;;;0.33;0.33;;;;;;;-0.18;100.00;97526.63;6127729;28;20334;-44
2023/12/20 01:22:00;;;;;;;1.00;0.50;;;;;;;-0.17;100.00;97512.53;6135068;28;20205;-42
2023/12/20 01:25:03;;;;;;;0.40;0.40;;;;;;;0.00;100.00;97544.63;6129592;29;20239;-42
2023/12/20 01:28:05;;;;;;;0.37;0.37;;;;;;;-0.12;100.00;97549.47;6136560;28;20572;-43
2023/12/20 01:31:08;;;;;;;0.50;0.50;;;;;;;-0.11;100.00;97542.41;6130996;28;20210;-45
2023/12/20 01:34:12;;;;;;;1.47;0.90;;;;;;;-0.01;100.00;97541.19;6135801;28;20790;-42
2023/12/20 01:37:14;;;;;;;0.57;0.50;;;;;;;0.15;100.00;97524.50;6129280;29;20574;-43
2023/12/20 01:40:17;;;;;;;1.80;0.40;;;;;;;0.51;100.00;97519.34;6136467;28;20248;-42
2023/12/20 01:43:20;;;;;;;0.53;0.40;;;;;;;1.35;97.44;97508.41;6133643;29;20195;-42
2023/12/20 01:46:22;;;;;;;0.70;0.40;;;;;;;2.11;91.15;97502.53;6133333;28;20718;-42
2023/12/20 01:49:25;;;;;;;0.47;0.47;;;;;;;2.53;88.39;97506.81;6127277;28;20295;-43
2023/12/20 01:52:29;;;;;;;1.53;0.60;;;;;;;3.54;70.93;97494.56;6135949;29;20218;-43
2023/12/20 01:55:35;;;;;;;1.47;0.80;;;;;;;5.39;62.04;97487.16;6137257;28;20347;-42
2023/12/20 01:58:45;;;;;;;0.57;0.50;;;;;;;6.45;55.05;97444.75;6132720;28;20206;-44
2023/12/20 02:01:47;;;;;;;1.67;0.60;;;;;;;7.18;51.39;97480.91;6134234;28;20198;-43
2023/12/20 02:04:50;;;;;;;0.60;0.60;;;;;;;6.67;56.40;97476.88;6131991;28;20195;-43
2023/12/20 02:07:54;;;;;;;0.70;0.60;;;;;;;5.82;60.45;97479.31;6135129;28;20220;-43
2023/12/20 02:10:57;;;;;;;0.80;0.60;;;;;;;5.12;63.57;97474.13;6131480;28;20235;-44
2023/12/20 02:14:00;;;;;;;3.13;1.23;;;;;;;4.76;67.53;97474.69;6123138;29;20704;-43
2023/12/20 02:17:03;;;;;;;2.10;0.90;;;;;;;4.41;69.15;97463.66;6129068;28;20286;-43
2023/12/20 02:20:07;;;;;;;0.63;0.60;;;;;;;4.02;72.13;97452.19;6121382;29;20837;-43
2023/12/20 02:23:10;;;;;;;1.07;0.70;;;;;;;3.91;71.99;97455.47;6133250;28;20196;-43
2023/12/20 02:26:13;;;;;;;0.77;0.60;;;;;;;3.83;71.08;97458.28;6133816;29;20278;-43
2023/12/20 02:29:16;;;;;;;0.60;0.60;;;;;;;3.92;70.48;97440.44;6129201;28;20194;-43
2023/12/20 02:32:20;;;;;;;0.60;0.60;;;;;;;4.31;64.81;97429.81;6130435;28;20721;-43
2023/12/20 02:35:22;;;;;;;1.53;0.80;;;;;;;4.47;66.31;97440.91;6137935;28;20215;-43
2023/12/20 02:38:24;;;;;;;0.73;0.60;;;;;;;4.21;67.12;97407.53;6132043;28;20191;-43
2023/12/20 02:41:26;;;;;;;1.00;0.80;;;;;;;4.18;66.99;97429.03;6137113;28;20229;-43
2023/12/20 02:44:29;;;;;;;1.10;0.87;;;;;;;3.98;68.80;97423.81;6124689;28;20199;-42
2023/12/20 02:47:31;;;;;;;0.60;0.60;;;;;;;3.90;68.63;97410.88;6123058;29;20664;-44
2023/12/20 02:50:34;;;;;;;1.43;0.80;;;;;;;3.78;69.34;97408.03;6131817;28;20202;-43
2023/12/20 02:53:36;;;;;;;1.80;0.87;;;;;;;3.81;68.93;97405.00;6131937;28;20203;-42
2023/12/20 02:56:39;;;;;;;1.40;0.70;;;;;;;3.90;65.19;97406.41;6114719;29;20199;-43
2023/12/20 02:59:41;;;;;;;1.13;1.00;;;;;;;4.43;62.49;97384.31;6135537;28;20206;-44
2023/12/20 03:02:44;;;;;;;1.03;0.90;;;;;;;4.50;62.54;97403.59;6130464;29;20890;-43
2023/12/20 03:05:46;;;;;;;0.80;0.80;;;;;;;4.19;65.91;97399.84;6142111;28;20710;-43
2023/12/20 03:08:49;;;;;;;1.10;0.80;;;;;;;3.98;65.68;97393.00;6137363;28;20302;-43
2023/12/20 03:11:51;;;;;;;1.03;0.60;;;;;;;3.83;67.84;97402.97;6136158;29;20226;-43
2023/12/20 03:14:54;;;;;;;1.03;0.73;;;;;;;3.54;68.97;97372.59;6130750;28;20211;-42
2023/12/20 03:17:56;;;;;;;3.13;0.70;;;;;;;3.62;68.20;97394.28;6127474;29;20564;-45
2023/12/20 03:20:59;;;;;;;1.10;1.00;;;;;;;3.67;68.36;97398.13;6141786;29;20221;-43
2023/12/20 03:24:01;;;;;;;2.00;0.90;;;;;;;3.34;67.64;97344.47;6132746;29;20208;-43
2023/12/20 03:27:04;;;;;;;1.10;1.00;;;;;;;3.92;64.95;97388.56;6138468;28;20285;-42
2023/12/20 03:30:07;;;;;;;1.60;1.13;;;;;;;3.84;67.46;97404.56;6132192;28;20214;-43
2023/12/20 03:33:10;;;;;;;1.50;1.10;;;;;;;3.55;67.22;97359.25;6133907;29;20702;-42
2023/12/20 03:36:12;;;;;;;1.20;0.90;;;;;;;4.55;61.37;97378.19;6132589;29;20243;-43
2023/12/20 03:39:14;;;;;;;0.97;0.87;;;;;;;5.27;56.75;97405.16;6134878;29;20297;-42
2023/12/20 03:42:17;;;;;;;1.30;0.90;;;;;;;5.61;54.71;97392.47;6135062;28;20286;-42
2023/12/20 03:45:19;;;;;;;2.17;0.97;;;;;;;5.56;57.34;97400.25;6133926;29;20196;-42
2023/12/20 03:48:21;;;;;;;1.10;0.80;;;;;;;5.59;56.77;97413.84;6119122;29;20204;-42
2023/12/20 03:51:24;;;;;;;1.00;0.90;;;;;;;5.59;56.06;97415.69;6133811;28;20192;-43
2023/12/20 03:54:26;;;;;;;1.13;0.97;;;;;;;5.82;56.49;97402.66;6127032;28;20229;-42
2023/12/20 03:57:29;;;;;;;1.23;1.03;;;;;;;6.75;51.42;97401.66;6136308;28;20536;-43
2023/12/20 04:00:31;;;;;;;1.80;0.90;;;;;;;7.14;50.22;97407.41;6135107;29;20210;-44
2023/12/20 04:03:34;;;;;;;4.63;0.93;;;;;;;6.89;52.24;97399.59;6127549;28;20205;-43
2023/12/20 04:06:37;;;;;;;1.80;1.20;;;;;;;6.60;51.25;97409.97;6137450;28;20201;-43
2023/12/20 04:09:41;;;;;;;2.37;1.10;;;;;;;7.20;50.29;97402.03;6126979;29;20205;-45
2023/12/20 04:12:44;;;;;;;1.57;1.30;;;;;;;6.81;53.04;97416.63;6138319;29;20204;-45
2023/12/20 04:15:47;;;;;;;1.20;1.03;;;;;;;7.47;48.40;97396.28;6140528;28;20773;-43
2023/12/20 04:18:50;;;;;;;2.23;1.33;;;;;;;7.42;49.20;97393.53;6135106;28;20191;-43
2023/12/20 04:21:52;;;;;;;1.93;1.30;;;;;;;7.30;49.45;97376.81;6136299;28;20230;-43
2023/12/20 04:24:55;;;;;;;1.27;1.00;;;;;;;7.25;49.73;97396.03;6124036;28;20279;-44
2023/12/20 04:27:57;;;;;;;2.30;1.40;;;;;;;7.33;50.26;97392.25;6135270;29;20203;-43
2023/12/20 04:30:59;;;;;;;2.10;1.30;;;;;;;7.30;50.64;97382.13;6135693;28;20289;-46
2023/12/20 04:34:02;;;;;;;1.67;1.23;;;;;;;7.35;49.88;97377.75;6136022;29;20603;-44
2023/12/20 04:37:05;;;;;;;1.80;1.30;;;;;;;7.12;50.68;97348.56;6132591;29;20705;-43
2023/12/20 04:40:08;;;;;;;1.97;1.50;;;;;;;7.22;51.99;97383.25;6135629;28;20202;-44
2023/12/20 04:43:10;;;;;;;2.20;1.63;;;;;;;7.30;51.00;97395.38;6137930;28;20208;-44
2023/12/20 04:46:13;;;;;;;2.27;1.80;;;;;;;7.24;52.18;97389.09;6132089;28;20200;-43
2023/12/20 04:49:16;;;;;;;2.80;1.60;;;;;;;7.17;54.14;97389.22;6133622;28;20669;-44
2023/12/20 04:52:19;;;;;;;2.77;1.40;;;;;;;7.09;54.70;97392.19;6133490;29;20729;-45
2023/12/20 04:55:21;;;;;;;1.83;1.70;;;;;;;7.23;55.76;97392.78;6117635;28;20316;-44
2023/12/20 04:58:25;;;;;;;2.40;1.60;;;;;;;7.18;57.96;97398.78;6133926;28;20667;-44
2023/12/20 05:01:28;;;;;;;3.10;1.60;;;;;;;7.01;60.25;97400.47;6139089;28;20217;-43
2023/12/20 05:04:31;;;;;;;2.03;1.83;;;;;;;6.78;63.56;97414.41;6129178;29;20288;-44
2023/12/20 05:07:34;;;;;;;2.40;1.40;;;;;;;6.58;65.33;97409.38;6124902;28;20208;-43
2023/12/20 05:10:36;;;;;;;2.70;1.57;;;;;;;6.39;66.12;97410.41;6134518;28;20240;-44
2023/12/20 05:13:39;;;;;;;1.77;1.40;;;;;;;6.12;68.42;97420.50;6139810;28;20220;-45
2023/12/20 05:16:50;;;;;;;3.07;1.40;;;;;;;5.95;69.15;97405.19;6131435;28;20202;-43
2023/12/20 05:19:53;;;;;;;2.80;1.70;;;;;;;5.76;72.17;97378.91;6134827;28;20253;-43
2023/12/20 05:22:55;;;;;;;4.33;1.63;;;;;;;6.41;73.18;97401.25;6135745;29;20670;-43
2023/12/20 05:25:59;;;;;;;3.93;2.33;;;;;;;6.56;72.82;97395.56;6133340;29;20264;-43
2023/12/20 05:29:02;;;;;;;3.20;1.93;;;;;;;7.06;69.77;97407.75;6129270;29;20675;-46
2023/12/20 05:32:05;;;;;;;3.30;2.03;;;;;;;7.09;69.10;97416.03;6135432;28;20751;-42
2023/12/20 05:35:07;;;;;;;3.07;2.03;;;;;;;7.16;67.95;97414.09;6139048;28;20235;-43
2023/12/20 05:38:10;;;;;;;3.27;2.20;;;;;;;7.01;68.96;97399.66;6132833;28;20209;-43
2023/12/20 05:41:13;;;;;;;2.50;1.93;;;;;;;7.07;66.76;97428.69;6135535;28;20198;-44
2023/12/20 05:44:16;;;;;;;2.77;2.07;;;;;;;7.15;65.10;97385.19;6137485;28;20202;-42
2023/12/20 05:47:18;;;;;;;2.97;1.93;;;;;;;7.20;64.72;97396.72;6134658;28;20238;-43
2023/12/20 05:50:21;;;;;;;2.07;1.80;;;;;;;7.13;65.55;97406.59;6133208;29;20193;-45
2023/12/20 05:53:24;;;;;;;3.40;2.20;;;;;;;7.01;66.21;97407.59;6135005;29;20208;-43
2023/12/20 05:56:27;;;;;;;3.73;2.90;;;;;;;7.15;64.78;97411.69;6134603;28;20297;-44
2023/12/20 05:59:29;;;;;;;3.93;1.90;;;;;;;7.16;64.01;97405.34;6123542;29;20197;-43
2023/12/20 06:02:32;;;;;;;3.47;2.40;;;;;;;7.19;64.35;97410.16;6131296;28;20669;-43
2023/12/20 06:05:35;;;;;;;3.37;2.27;;;;;;;7.16;64.26;97403.50;6129340;28;20682;-44
2023/12/20 06:08:38;;;;;;;4.70;2.10;;;;;;;7.17;63.64;97415.72;6131555;28;20208;-44
2023/12/20 06:11:41;;;;;;;2.53;1.80;;;;;;;7.09;64.33;97415.22;6105511;29;20237;-43
2023/12/20 06:14:43;;;;;;;2.70;1.90;;;;;;;7.24;62.58;97405.00;6130315;28;20206;-42
2023/12/20 06:17:46;;;;;;;2.67;1.93;;;;;;;7.13;62.70;97409.25;6135121;29;20205;-43
2023/12/20 06:20:49;;;;;;;3.13;1.90;;;;;;;7.34;61.49;97417.69;6134404;28;20204;-43
2023/12/20 06:23:51;;;;;;;3.03;2.00;;;;;;;6.94;59.72;97400.53;6136076;28;20225;-44
2023/12/20 06:26:55;;;;;;;2.00;1.80;;;;;;;7.02;60.59;97438.34;6119911;29;20284;-43
2023/12/20 06:29:57;;;;;;;2.73;2.00;;;;;;;6.84;61.96;97444.47;6129781;29;20191;-43
2023/12/20 06:32:59;;;;;;;2.37;1.70;;;;;;;6.66;63.05;97440.84;6115560;29;20240;-43
2023/12/20 06:36:01;;;;;;;1.93;1.60;;;;;;;6.84;63.63;97449.78;6116965;29;20223;-43
2023/12/20 06:39:04;;;;;;;2.23;1.83;;;;;;;6.97;62.83;97445.13;6133287;28;20195;-42
2023/12/20 06:42:06;;;;;;;2.03;1.80;;;;;;;6.86;63.21;97437.94;6126086;28;20200;-45
2023/12/20 06:45:09;;;;;;;2.20;1.80;;;;;;;6.76;64.67;97455.41;6115191;29;20227;-43
2023/12/20 06:48:13;;;;;;;2.67;1.97;;;;;;;6.80;64.64;97462.66;6123757;28;20212;-43
2023/12/20 06:51:16;;;;;;;3.87;2.10;;;;;;;7.01;65.22;97453.44;6126218;28;20202;-43
2023/12/20 06:54:19;;;;;;;5.30;1.90;;;;;;;6.75;66.41;97448.47;6120161;29;20207;-44
2023/12/20 06:57:21;;;;;;;3.57;1.93;;;;;;;6.62;68.72;97444.16;6131729;28;20198;-44
2023/12/20 07:00:23;;;;;;;3.17;2.37;;;;;;;6.56;68.48;97434.47;6133995;28;20574;-44
2023/12/20 07:03:25;;;;;;;2.03;1.83;;;;;;;6.50;70.00;97430.03;6122547;28;20190;-43
2023/12/20 07:06:27;;;;;;;2.57;1.77;;;;;;;6.55;71.18;97448.69;6130044;28;20319;-44
2023/12/20 07:09:29;;;;;;;2.30;1.87;;;;;;;6.49;69.40;97425.78;6125089;29;20195;-45
2023/12/20 07:12:31;;;;;;;3.67;2.00;;;;;;;6.85;68.26;97411.69;6127182;28;20246;-43
2023/12/20 07:15:33;;;;;;;3.73;2.00;;;;;;;6.84;69.07;97434.69;6128551;28;20213;-44
2023/12/20 07:18:35;;;;;;;3.90;2.23;;;;;;;6.64;72.14;97427.00;6129491;29;20205;-43
2023/12/20 07:21:38;;;;;;;1.97;1.73;;;;;;;6.59;71.88;97434.00;6132272;28;20242;-43
2023/12/20 07:24:40;;;;;;;2.53;2.10;;;;;;;6.79;70.73;97434.56;6131290;28;20218;-44
2023/12/20 07:27:42;;;;;;;2.63;2.17;;;;;;;6.75;70.89;97424.63;6133053;28;20284;-43
2023/12/20 07:30:46;;;;;;;7.00;2.00;;;;;;;6.87;70.54;97439.56;6132912;28;20521;-42
2023/12/20 07:33:48;;;;;;;3.83;1.90;;;;;;;6.92;69.65;97438.88;6132705;28;20207;-43
2023/12/20 07:36:51;;;;;;;2.20;1.87;;;;;;;7.03;68.79;97459.31;6130639;28;20236;-42
2023/12/20 07:39:53;;;;;;;2.90;2.13;;;;;;;6.89;69.55;97445.41;6132998;28;20286;-42
2023/12/20 07:42:55;;;;;;;2.37;1.60;;;;;;;6.90;69.30;97444.41;6131533;28;20187;-43
2023/12/20 07:46:03;;;;;;;2.43;1.90;;;;;;;6.86;69.89;97456.47;6132924;28;20198;-43
2023/12/20 07:49:05;;;;;;;2.23;1.67;;;;;;;6.83;71.20;97456.91;6139691;28;20683;-44
2023/12/20 07:52:08;;;;;;;3.10;1.63;;;;;;;6.71;71.33;97433.03;6135957;29;20565;-42
2023/12/20 07:55:10;;;;;;;2.03;1.60;;;;;;;6.81;70.11;97447.59;6120780;28;20690;-43
2023/12/20 07:58:12;;;;;;;2.63;1.70;;;;;;;6.96;69.74;97458.59;6134861;28;20272;-45
2023/12/20 08:01:18;;;;;;;2.40;1.87;;;;;;;6.98;69.42;97457.31;6124681;28;20240;-45
2023/12/20 08:04:20;;;;;;;3.57;1.77;;;;;;;7.03;70.46;97450.56;6131946;29;20234;-46
2023/12/20 08:07:23;;;;;;;2.77;1.80;;;;;;;7.02;70.00;97470.13;6142910;28;20230;-45
2023/12/20 08:10:27;;;;;;;3.27;1.60;;;;;;;6.93;71.13;97454.53;6138767;28;20242;-44
2023/12/20 08:13:29;;;;;;;4.03;1.93;;;;;;;7.03;70.52;97445.25;6140629;28;20359;-46
2023/12/20 08:16:31;;;;;;;3.60;1.90;;;;;;;7.09;71.60;97441.69;6136414;29;20551;-45
2023/12/20 08:19:34;;;;;;;2.47;1.60;;;;;;;7.00;71.13;97441.22;6136370;28;20330;-43
2023/12/20 08:22:36;;;;;;;3.47;1.70;;;;;;;7.00;72.21;97480.16;6137185;28;20210;-43
2023/12/20 08:25:38;;;;;;;4.17;1.90;;;;;;;7.16;70.87;97464.44;6126279;28;20197;-44
2023/12/20 08:28:40;;;;;;;1.80;1.57;;;;;;;7.06;71.06;97444.81;6128191;29;20567;-43
2023/12/20 08:31:42;;;;;;;2.30;1.90;;;;;;;7.01;70.79;97469.31;6124825;28;20213;-43
2023/12/20 08:34:44;;;;;;;2.60;1.40;;;;;;;6.91;71.69;97475.16;6133296;28;20296;-44
2023/12/20 08:37:47;;;;;;;2.37;1.60;;;;;;;6.81;71.67;97463.47;6136552;28;20276;-43
2023/12/20 08:40:49;;;;;;;1.77;1.60;;;;;;;6.82;73.40;97484.44;6133951;28;20836;-43
2023/12/20 08:43:51;;;;;;;1.30;1.20;;;;;;;7.09;72.12;97486.72;6128544;28;20217;-43
2023/12/20 08:46:56;;;;;;;1.80;1.70;;;;;;;7.00;71.48;97488.91;6128689;28;20289;-43
2023/12/20 08:50:00;;;;;;;1.80;1.50;;;;;;;6.91;72.79;97482.28;6132962;28;20238;-43
2023/12/20 08:53:02;;;;;;;2.27;1.77;;;;;;;6.81;72.26;97511.94;6130499;28;20255;-44
2023/12/20 08:56:05;;;;;;;1.43;1.33;;;;;;;6.83;72.83;97501.91;6118604;29;20726;-44
2023/12/20 08:59:07;;;;;;;2.80;1.80;;;;;;;6.89;71.72;97498.38;6135490;28;20202;-43
2023/12/20 09:02:09;;;;;;;1.73;1.40;;;;;;;6.88;72.06;97507.34;6132438;28;20337;-44
2023/12/20 09:05:11;;;;;;;2.70;1.57;;;;;;;6.82;73.27;97502.97;6131132;29;20213;-43
2023/12/20 09:08:13;;;;;;;2.20;1.53;;;;;;;6.77;74.17;97525.84;6131005;28;20535;-46
2023/12/20 09:11:15;;;;;;;1.30;1.20;;;;;;;6.61;74.58;97527.25;6130747;28;20793;-44
2023/12/20 09:14:17;;;;;;;2.97;1.57;;;;;;;6.64;76.04;97522.28;6130355;28;20233;-43
2023/12/20 09:17:22;;;;;;;1.90;1.40;;;;;;;6.63;76.46;97527.81;6130850;28;20214;-43
2023/12/20 09:20:24;;;;;;;1.67;1.20;;;;;;;6.58;77.15;97538.25;6134898;29;20209;-43
2023/12/20 09:23:26;;;;;;;0.90;0.90;;;;;;;6.39;79.64;97526.84;6132414;28;20677;-43
2023/12/20 09:26:29;;;;;;;1.27;1.17;;;;;;;6.52;78.99;97521.41;6133277;28;20199;-43
2023/12/20 09:29:31;;;;;;;1.80;1.17;;;;;;;6.37;80.04;97536.84;6129711;28;20206;-43
2023/12/20 09:32:33;;;;;;;1.43;1.10;;;;;;;6.20;81.96;97529.44;6133254;28;20204;-43
2023/12/20 09:35:36;;;;;;;1.40;1.30;;;;;;;6.26;82.17;97532.28;6136382;29;20218;-43
2023/12/20 09:38:39;;;;;;;1.30;1.20;;;;;;;6.27;82.50;97541.81;6139554;28;20208;-44
2023/12/20 09:41:49;;;;;;;1.47;1.30;;;;;;;6.17;83.77;97521.97;6137291;28;20192;-43
2023/12/20 09:44:51;;;;;;;1.80;1.47;;;;;;;6.06;84.60;97522.69;6140829;29;20208;-43
2023/12/20 09:47:57;;;;;;;2.07;1.70;;;;;;;6.25;83.09;97549.16;6134103;29;20206;-42
2023/12/20 09:50:59;;;;;;;2.27;1.30;;;;;;;6.01;84.83;97521.69;6136941;28;20699;-43
2023/12/20 09:54:03;;;;;;;1.50;1.13;;;;;;;5.87;87.42;97548.22;6127151;28;20263;-43
2023/12/20 09:57:05;;;;;;;1.47;1.13;;;;;;;5.95;85.61;97528.66;6126402;28;20343;-42
2023/12/20 10:00:09;;;;;;;2.20;1.60;;;;;;;5.81;86.83;97527.09;6128231;28;20207;-43
2023/12/20 10:03:15;;;;;;;1.53;1.20;;;;;;;5.67;88.20;97499.97;6143004;28;20283;-43
2023/12/20 10:06:17;;;;;;;1.20;0.83;;;;;;;5.77;88.04;97508.22;6136228;28;20200;-43
2023/12/20 10:09:19;;;;;;;1.27;1.10;;;;;;;5.85;88.82;97520.34;6133575;28;20201;-43
2023/12/20 10:12:21;;;;;;;1.23;0.90;;;;;;;5.63;91.30;97490.84;6122738;28;20239;-44
2023/12/20 10:15:24;;;;;;;1.27;0.67;;;;;;;5.48;92.06;97490.34;6133522;28;20279;-42
2023/12/20 10:18:29;;;;;;;0.83;0.83;;;;;;;5.53;90.71;97506.38;6115763;29;20642;-43
2023/12/20 10:21:41;;;;;;;1.10;0.80;;;;;;;5.48;92.80;97474.50;6129370;28;20202;-43
2023/12/20 10:24:46;;;;;;;0.40;0.40;;;;;;;5.59;92.50;97455.31;6127699;28;20330;-45
2023/12/20 10:27:50;;;;;;;0.47;0.47;;;;;;;5.53;92.13;97482.59;6128888;28;20763;-42
2023/12/20 10:30:53;;;;;;;0.60;0.60;;;;;;;5.55;91.32;97468.13;6125597;28;20283;-43
2023/12/20 10:33:59;;;;;;;0.90;0.70;;;;;;;5.57;91.30;97481.16;6127580;28;20234;-45
2023/12/20 10:37:01;;;;;;;1.17;0.53;;;;;;;5.83;89.71;97482.78;6132417;28;20294;-47
2023/12/20 10:40:06;;;;;;;0.50;0.50;;;;;;;5.72;90.14;97470.25;6132610;28;20204;-43
2023/12/20 10:43:09;;;;;;;0.53;0.50;;;;;;;5.79;89.86;97461.25;6132452;29;20211;-43
2023/12/20 10:46:12;;;;;;;0.50;0.50;;;;;;;5.79;89.47;97463.06;6131430;29;20687;-45
2023/12/20 10:49:15;;;;;;;0.63;0.50;;;;;;;5.74;91.24;97473.50;6124000;29;20217;-44
2023/12/20 10:52:18;;;;;;;0.63;0.60;;;;;;;5.86;88.34;97455.88;6130775;28;20887;-45
2023/12/20 10:55:20;;;;;;;0.53;0.50;;;;;;;5.93;89.24;97454.03;6129559;28;20662;-45
2023/12/20 10:58:24;;;;;;;0.50;0.40;;;;;;;5.73;91.35;97456.03;6128901;28;20201;-44
2023/12/20 11:01:28;;;;;;;0.40;0.40;;;;;;;6.07;86.88;97441.50;6128524;28;20219;-44
2023/12/20 11:04:47;;;;;;;0.60;0.60;;;;;;;5.80;89.20;97417.91;6130859;28;20203;-43
2023/12/20 11:08:03;;;;;;;0.47;0.47;;;;;;;5.88;88.99;97422.13;6133874;28;20202;-43
2023/12/20 11:11:14;;;;;;;0.70;0.57;;;;;;;6.17;87.07;97431.22;6128091;28;20240;-42
2023/12/20 11:14:34;;;;;;;1.27;0.80;;;;;;;6.10;87.89;97427.81;6129550;28;20215;-42
2023/12/20 11:17:39;;;;;;;0.70;0.60;;;;;;;6.16;86.54;97411.91;6127842;29;20583;-44
2023/12/20 11:20:41;;;;;;;0.50;0.50;;;;;;;5.96;87.37;97406.03;6121972;29;20671;-43
2023/12/20 11:23:44;;;;;;;0.50;0.50;;;;;;;6.13;87.51;97440.63;6127434;28;20204;-43
2023/12/20 11:26:50;;;;;;;0.63;0.63;;;;;;;6.05;87.64;97430.31;6116301;29;20208;-43
2023/12/20 11:29:54;;;;;;;0.60;0.43;;;;;;;6.09;87.54;97413.00;6130094;28;20197;-44
2023/12/20 11:32:56;;;;;;;0.40;0.40;;;;;;;5.99;88.41;97402.91;6116008;28;20216;-43
2023/12/20 11:35:59;;;;;;;0.30;0.30;;;;;;;6.03;86.57;97396.19;6123051;29;20217;-43
2023/12/20 11:39:08;;;;;;;0.40;0.40;;;;;;;6.24;84.90;97425.84;6128073;28;20203;-43
2023/12/20 11:42:14;;;;;;;0.40;0.40;;;;;;;6.38;84.55;97422.84;6123963;28;20201;-42
2023/12/20 11:45:22;;;;;;;0.30;0.30;;;;;;;6.22;85.45;97420.00;6137506;29;20206;-44
2023/12/20 11:48:24;;;;;;;0.50;0.50;;;;;;;6.43;83.31;97411.59;6137486;29;20599;-42
2023/12/20 11:51:27;;;;;;;0.40;0.40;;;;;;;6.41;83.47;97429.53;6139402;28;20561;-45
2023/12/20 11:54:30;;;;;;;0.40;0.40;;;;;;;6.30;84.49;97417.03;6134786;28;20296;-43
2023/12/20 11:57:33;;;;;;;0.57;0.50;;;;;;;6.44;83.24;97426.44;6131659;29;20212;-44
2023/12/20 12:00:36;;;;;;;0.50;0.50;;;;;;;6.31;85.01;97426.63;6131340;28;20715;-43
2023/12/20 12:03:38;;;;;;;0.40;0.40;;;;;;;6.48;82.90;97401.16;6132092;29;20675;-44
2023/12/20 12:06:40;;;;;;;0.30;0.30;;;;;;;6.58;82.80;97398.78;6132255;28;20197;-44
2023/12/20 12:09:43;;;;;;;0.50;0.50;;;;;;;6.51;82.40;97421.91;6133555;29;20243;-44
2023/12/20 12:12:46;;;;;;;0.30;0.30;;;;;;;6.59;82.33;97407.53;6134696;28;20195;-43
2023/12/20 12:15:50;;;;;;;0.37;0.37;;;;;;;6.50;83.55;97420.25;6133157;29;20226;-42
2023/12/20 12:18:56;;;;;;;0.40;0.30;;;;;;;6.58;82.79;97404.09;6136420;28;20255;-42
2023/12/20 12:22:13;;;;;;;0.60;0.47;;;;;;;6.68;83.34;97396.41;6134315;28;20197;-43
2023/12/20 12:25:17;;;;;;;1.57;0.50;;;;;;;6.50;84.47;97411.50;6137115;28;20194;-44
2023/12/20 12:28:19;;;;;;;0.40;0.40;;;;;;;6.51;83.70;97399.91;6135613;28;20198;-44
2023/12/20 12:31:21;;;;;;;0.30;0.30;;;;;;;6.46;84.03;97382.06;6134105;28;20255;-43
2023/12/20 12:34:27;;;;;;;0.30;0.30;;;;;;;6.59;82.67;97371.28;6135546;28;20556;-43
2023/12/20 12:37:29;;;;;;;0.30;0.30;;;;;;;6.49;83.43;97378.16;6135231;28;20202;-44
2023/12/20 12:40:36;;;;;;;0.50;0.40;;;;;;;6.61;83.94;97371.88;6138628;28;20208;-43
2023/12/20 12:43:38;;;;;;;0.50;0.50;;;;;;;6.45;86.36;97370.69;6137962;28;20647;-42
2023/12/20 12:46:41;;;;;;;0.30;0.30;;;;;;;6.43;86.55;97398.38;6134523;28;20236;-44
2023/12/20 12:49:43;;;;;;;0.47;0.47;;;;;;;6.52;84.61;97377.72;6134377;28;20200;-44
2023/12/20 12:52:46;;;;;;;0.47;0.40;;;;;;;6.40;85.97;97389.06;6134955;28;20198;-43
2023/12/20 12:55:48;;;;;;;0.50;0.50;;;;;;;6.43;85.56;97380.66;6135450;28;20202;-43
2023/12/20 12:58:50;;;;;;;1.10;0.53;;;;;;;6.45;84.98;97369.84;6127979;28;20214;-42
2023/12/20 13:01:53;;;;;;;0.70;0.50;;;;;;;6.24;86.00;97367.66;6134960;28;20232;-44
2023/12/20 13:04:55;;;;;;;0.57;0.53;;;;;;;6.01;86.91;97352.47;6126380;28;20195;-43
2023/12/20 13:07:58;;;;;;;0.40;0.40;;;;;;;6.15;87.22;97372.44;6134495;28;20727;-43
2023/12/20 13:11:04;;;;;;;0.50;0.50;;;;;;;6.08;87.94;97363.78;6123936;29;20271;-43
2023/12/20 13:14:07;;;;;;;0.50;0.50;;;;;;;6.13;87.52;97372.66;6132150;28;20205;-43
2023/12/20 13:17:09;;;;;;;0.63;0.50;;;;;;;6.08;87.09;97369.88;6131299;28;20294;-44
2023/12/20 13:20:12;;;;;;;0.80;0.60;;;;;;;6.16;86.54;97369.59;6130147;28;20552;-43
2023/12/20 13:23:14;;;;;;;0.60;0.60;;;;;;;6.18;86.64;97359.59;6130532;28;20259;-42
2023/12/20 13:26:17;;;;;;;0.50;0.43;;;;;;;6.06;87.18;97365.81;6124071;28;20246;-43
2023/12/20 13:29:19;;;;;;;1.07;0.57;;;;;;;5.96;88.05;97376.94;6130243;28;20191;-44
2023/12/20 13:32:21;;;;;;;0.60;0.60;;;;;;;5.95;87.83;97373.47;6127515;28;20205;-45
2023/12/20 13:35:23;;;;;;;0.90;0.53;;;;;;;5.94;87.63;97382.44;6125817;29;20288;-44
2023/12/20 13:38:26;;;;;;;0.50;0.50;;;;;;;6.00;87.65;97366.72;6129220;29;20449;-43
2023/12/20 13:41:28;;;;;;;0.50;0.50;;;;;;;6.02;86.73;97370.75;6129041;29;20581;-44
2023/12/20 13:44:30;;;;;;;0.47;0.40;;;;;;;5.88;88.15;97367.41;6129341;28;20554;-43
2023/12/20 13:47:33;;;;;;;0.87;0.60;;;;;;;5.94;88.24;97376.34;6133467;28;20217;-42
2023/12/20 13:50:35;;;;;;;1.97;0.60;;;;;;;5.98;87.36;97392.56;6131935;28;20199;-43
2023/12/20 13:53:38;;;;;;;0.50;0.50;;;;;;;5.96;87.38;97398.09;6133073;28;20201;-44
2023/12/20 13:56:40;;;;;;;0.50;0.50;;;;;;;5.93;87.36;97394.03;6135374;28;20213;-44
2023/12/20 13:59:58;;;;;;;0.47;0.40;;;;;;;5.90;88.54;97415.56;6132914;28;20661;-44
2023/12/20 14:03:01;;;;;;;0.50;0.50;;;;;;;6.02;87.00;97399.84;6132974;28;20581;-43
2023/12/20 14:06:04;;;;;;;0.53;0.53;;;;;;;5.90;87.54;97397.06;6133131;29;20276;-43
2023/12/20 14:09:06;;;;;;;0.40;0.30;;;;;;;5.85;87.71;97390.84;6135563;28;20655;-42
2023/12/20 14:12:08;;;;;;;0.60;0.50;;;;;;;5.58;88.05;97385.00;6133076;29;20236;-44
2023/12/20 14:15:12;;;;;;;2.47;0.63;;;;;;;6.01;86.24;97422.03;6133181;29;20249;-42
2023/12/20 14:18:15;;;;;;;0.40;0.40;;;;;;;5.98;86.73;97409.25;6136420;28;20246;-43
2023/12/20 14:21:18;;;;;;;0.33;0.33;;;;;;;5.87;88.11;97409.94;6134652;28;20193;-42
2023/12/20 14:24:21;;;;;;;1.83;0.50;;;;;;;5.75;89.18;97427.53;6137052;28;20578;-42
2023/12/20 14:27:27;;;;;;;1.20;0.50;;;;;;;5.74;89.01;97426.72;6130898;29;20663;-42
2023/12/20 14:30:29;;;;;;;1.43;0.70;;;;;;;5.68;90.09;97427.59;6132858;29;20205;-43